Time;durP1;ratioP1;P1;durP2;ratioP2;P2;SDS_P1;SDS_P2;PMS_P1;PMS_P2;Temp;Humidity;BMP_temperature;BMP_pressure;BME280_temperature;BME280_humidity;BME280_pressure;Samples;Min_cycle;Max_cycle;Signal;HPM_P1;HPM_P2
2022/01/17 00:00:57;;;;;;;23.40;12.60;;;;;;;-3.08;78.62;99058.13;109033;1276;137994;-66
2022/01/17 00:03:25;;;;;;;28.80;13.70;;;;;;;-3.09;78.70;99049.67;109135;1277;23435;-66
2022/01/17 00:05:56;;;;;;;34.90;14.20;;;;;;;-3.07;78.80;99042.41;109071;1276;140240;-66
2022/01/17 00:08:24;;;;;;;34.40;14.20;;;;;;;-3.06;78.92;99035.10;109212;1276;23365;-66
2022/01/17 00:11:14;;;;;;;30.70;13.30;;;;;;;-3.03;78.88;99027.50;109063;1276;138355;-65
2022/01/17 00:13:43;;;;;;;26.30;13.50;;;;;;;-2.99;78.96;99023.12;109135;1276;22442;-66
2022/01/17 00:16:19;;;;;;;27.00;10.70;;;;;;;-2.95;78.94;99019.29;109182;1276;22385;-66
2022/01/17 00:21:17;;;;;;;23.00;12.00;;;;;;;-2.88;79.02;99017.80;109051;1276;22672;-66
2022/01/17 00:23:45;;;;;;;24.90;13.10;;;;;;;-2.85;78.80;99013.89;106643;1276;138056;-66
2022/01/17 00:26:13;;;;;;;21.70;11.40;;;;;;;-2.80;78.85;99010.52;109088;1275;23210;-66
2022/01/17 00:28:41;;;;;;;26.50;12.70;;;;;;;-2.78;78.72;99005.42;109029;1276;137824;-65
2022/01/17 00:31:09;;;;;;;24.40;11.90;;;;;;;-2.75;78.77;99004.96;109123;1277;22533;-66
2022/01/17 00:33:37;;;;;;;20.70;12.10;;;;;;;-2.73;78.71;99000.05;109196;1276;22423;-66
2022/01/17 00:36:05;;;;;;;24.20;11.80;;;;;;;-2.71;78.60;98998.20;109021;1276;137497;-66
2022/01/17 00:38:34;;;;;;;26.30;12.20;;;;;;;-2.69;78.45;98988.17;109126;1276;23313;-66
2022/01/17 00:41:02;;;;;;;24.50;12.40;;;;;;;-2.67;78.33;98985.45;109062;1276;137845;-66
2022/01/17 00:43:30;;;;;;;20.00;10.80;;;;;;;-2.65;78.10;98976.16;109151;1276;22483;-66
2022/01/17 00:45:59;;;;;;;25.80;11.90;;;;;;;-2.63;78.11;98971.98;109190;1275;22425;-66
2022/01/17 00:48:27;;;;;;;23.40;11.30;;;;;;;-2.60;78.16;98961.63;109065;1276;138007;-66
2022/01/17 00:50:55;;;;;;;27.30;12.40;;;;;;;-2.57;78.08;98958.34;109112;1277;23264;-66
2022/01/17 00:53:22;;;;;;;23.10;11.40;;;;;;;-2.52;77.96;98948.59;109014;1277;139933;-66
2022/01/17 00:55:50;;;;;;;21.50;11.00;;;;;;;-2.46;77.72;98943.27;109172;1276;22266;-66
2022/01/17 00:58:18;;;;;;;26.90;13.10;;;;;;;-2.42;77.59;98943.11;109152;1276;22629;-66
2022/01/17 01:00:46;;;;;;;27.30;12.70;;;;;;;-2.38;77.51;98942.39;109185;1276;137544;-66
2022/01/17 01:03:14;;;;;;;22.00;11.70;;;;;;;-2.33;77.36;98939.60;109407;1277;22485;-66
2022/01/17 01:05:43;;;;;;;23.70;11.20;;;;;;;-2.30;77.28;98936.95;109185;1276;137518;-65
2022/01/17 01:08:11;;;;;;;19.80;11.50;;;;;;;-2.25;77.03;98938.77;106068;1277;22845;-67
2022/01/17 01:10:39;;;;;;;24.30;12.30;;;;;;;-2.22;76.87;98936.30;104859;1278;137955;-66
2022/01/17 01:13:07;;;;;;;27.80;12.30;;;;;;;-2.20;76.87;98934.77;104771;1278;22737;-66
2022/01/17 01:15:47;;;;;;;21.20;12.20;;;;;;;-2.16;76.58;98935.00;108955;1277;23768;-67
2022/01/17 01:18:18;;;;;;;26.60;12.30;;;;;;;-2.14;76.43;98930.62;108945;1277;139205;-66
2022/01/17 01:28:49;;;;;;;23.40;11.10;;;;;;;-1.98;76.08;98913.19;109115;1276;138961;-66
2022/01/17 01:31:27;;;;;;;22.70;10.70;;;;;;;-1.93;75.98;98909.42;109162;1276;22263;-66
2022/01/17 01:34:02;;;;;;;25.40;10.70;;;;;;;-1.89;75.90;98901.00;109181;1277;23552;-66
2022/01/17 01:36:33;;;;;;;21.90;10.30;;;;;;;-1.85;75.71;98898.80;109066;1276;138918;-66
2022/01/17 01:39:03;;;;;;;23.30;10.90;;;;;;;-1.80;75.51;98890.79;109077;1276;22571;-66
2022/01/17 01:41:37;;;;;;;24.90;11.90;;;;;;;-1.75;75.57;98885.58;109033;1277;138476;-66
2022/01/17 01:44:05;;;;;;;27.30;13.20;;;;;;;-1.71;75.30;98884.19;109210;1276;22536;-66
2022/01/17 01:46:33;;;;;;;25.60;13.10;;;;;;;-1.67;75.16;98883.23;109113;1276;22488;-66
2022/01/17 01:49:01;;;;;;;23.60;11.90;;;;;;;-1.63;75.02;98879.04;109038;1276;137349;-66
2022/01/17 01:51:29;;;;;;;25.00;11.70;;;;;;;-1.61;74.90;98872.32;109170;1276;22249;-65
2022/01/17 01:53:57;;;;;;;21.40;11.00;;;;;;;-1.59;75.04;98873.30;109096;1276;138616;-66
2022/01/17 01:56:25;;;;;;;27.10;12.40;;;;;;;-1.57;75.16;98872.29;109227;1276;23163;-66
2022/01/17 01:58:53;;;;;;;26.90;12.70;;;;;;;-1.55;75.62;98867.48;109064;1276;138365;-65
2022/01/17 02:01:23;;;;;;;23.10;10.50;;;;;;;-1.54;75.92;98861.05;109113;1277;22660;-66
2022/01/17 02:03:51;;;;;;;21.70;11.30;;;;;;;-1.52;76.75;98849.92;109218;1277;22450;-65
2022/01/17 02:06:19;;;;;;;20.90;11.30;;;;;;;-1.51;76.93;98840.10;109048;1276;139025;-66
2022/01/17 02:08:47;;;;;;;20.20;10.90;;;;;;;-1.49;77.44;98832.02;109168;1276;22540;-66
2022/01/17 02:11:15;;;;;;;24.90;12.10;;;;;;;-1.49;77.98;98815.15;108903;1278;139127;-66
2022/01/17 02:13:43;;;;;;;24.00;12.60;;;;;;;-1.48;78.32;98804.21;109129;1275;22543;-66
2022/01/17 02:16:13;;;;;;;25.00;11.90;;;;;;;-1.47;78.74;98786.46;109177;1277;23655;-66
2022/01/17 02:18:42;;;;;;;23.10;10.80;;;;;;;-1.47;79.23;98773.08;109103;1276;139052;-66
2022/01/17 02:23:46;;;;;;;21.40;10.90;;;;;;;-1.44;79.56;98762.05;109082;1276;138025;-67
2022/01/17 02:26:15;;;;;;;22.60;11.30;;;;;;;-1.43;79.80;98747.79;109138;1276;22566;-66
2022/01/17 02:28:46;;;;;;;27.70;10.70;;;;;;;-1.44;80.04;98735.50;109047;1276;138566;-65
2022/01/17 02:31:14;;;;;;;26.20;11.80;;;;;;;-1.44;80.17;98712.81;109179;1276;22436;-64
2022/01/17 02:33:42;;;;;;;24.70;12.20;;;;;;;-1.47;80.26;98711.27;109138;1276;23115;-64
2022/01/17 02:36:10;;;;;;;22.70;12.10;;;;;;;-1.50;80.45;98735.16;109101;1276;137785;-65
2022/01/17 02:38:39;;;;;;;24.30;12.20;;;;;;;-1.50;80.85;98751.39;109189;1276;22436;-65
2022/01/17 02:41:07;;;;;;;21.60;12.10;;;;;;;-1.50;80.87;98743.79;109078;1276;139031;-65
2022/01/17 02:43:35;;;;;;;34.10;14.60;;;;;;;-1.48;81.10;98740.18;109163;1276;22516;-65
2022/01/17 02:48:35;;;;;;;28.10;13.80;;;;;;;-1.49;81.19;98727.52;109027;1276;139495;-65
2022/01/17 02:51:03;;;;;;;27.20;12.60;;;;;;;-1.49;81.46;98721.11;109226;1276;22456;-65
2022/01/17 02:53:34;;;;;;;26.20;11.70;;;;;;;-1.48;81.37;98710.71;109059;1276;138199;-65
2022/01/17 02:56:04;;;;;;;25.80;12.60;;;;;;;-1.47;81.48;98703.83;109163;1276;24767;-65
2022/01/17 02:58:33;;;;;;;24.50;13.00;;;;;;;-1.45;81.41;98701.11;109210;1276;23348;-65
2022/01/17 03:01:05;;;;;;;22.30;11.60;;;;;;;-1.44;81.53;98686.55;109103;1276;138765;-65
2022/01/17 03:03:34;;;;;;;24.90;12.10;;;;;;;-1.44;81.55;98673.81;109113;1277;22471;-66
2022/01/17 03:06:03;;;;;;;33.60;12.50;;;;;;;-1.43;81.70;98670.77;109079;1277;139807;-66
2022/01/17 03:08:32;;;;;;;27.50;13.60;;;;;;;-1.42;81.56;98669.09;109207;1276;22433;-65
2022/01/17 03:11:22;;;;;;;30.20;13.30;;;;;;;-1.39;81.69;98668.20;109041;1276;140096;-65
2022/01/17 03:13:51;;;;;;;26.50;12.90;;;;;;;-1.37;81.61;98661.91;109259;1276;22478;-65
2022/01/17 03:16:28;;;;;;;21.10;12.80;;;;;;;-1.36;81.56;98659.95;109064;1277;22470;-65
2022/01/17 03:18:56;;;;;;;26.00;12.60;;;;;;;-1.34;81.61;98654.61;109079;1277;139166;-65
2022/01/17 03:21:27;;;;;;;26.70;13.00;;;;;;;-1.33;81.41;98647.83;109231;1276;23158;-65
2022/01/17 03:23:55;;;;;;;25.40;14.00;;;;;;;-1.33;81.43;98635.21;109060;1277;138133;-65
2022/01/17 03:26:23;;;;;;;27.00;13.80;;;;;;;-1.33;81.14;98635.13;109225;1276;23030;-66
2022/01/17 03:28:51;;;;;;;25.50;12.50;;;;;;;-1.32;81.12;98633.89;109107;1277;139760;-66
2022/01/17 03:31:19;;;;;;;27.90;12.90;;;;;;;-1.33;81.10;98634.64;109149;1276;22456;-66
2022/01/17 03:33:47;;;;;;;22.50;10.90;;;;;;;-1.32;81.02;98627.36;109215;1277;22487;-66
2022/01/17 03:36:14;;;;;;;26.00;13.70;;;;;;;-1.29;80.73;98620.08;109101;1275;139880;-67
2022/01/17 03:38:42;;;;;;;27.40;12.60;;;;;;;-1.28;80.77;98610.58;109195;1277;22494;-66
2022/01/17 03:41:13;;;;;;;23.50;11.80;;;;;;;-1.26;80.52;98596.94;109079;1277;138286;-66
2022/01/17 03:43:41;;;;;;;22.50;12.00;;;;;;;-1.24;80.65;98590.97;109192;1277;22454;-66
2022/01/17 03:46:09;;;;;;;22.80;12.50;;;;;;;-1.22;80.21;98584.52;109164;1277;22558;-66
2022/01/17 03:48:37;;;;;;;27.90;12.40;;;;;;;-1.19;80.11;98580.59;108981;1277;138379;-66
2022/01/17 03:51:04;;;;;;;21.00;12.20;;;;;;;-1.15;79.97;98573.66;109202;1276;22479;-66
2022/01/17 03:53:33;;;;;;;24.80;12.90;;;;;;;-1.13;79.64;98568.55;109159;1276;138081;-66
2022/01/17 03:56:00;;;;;;;27.80;11.80;;;;;;;-1.11;79.62;98561.48;109085;1277;22445;-66
2022/01/17 03:58:30;;;;;;;25.30;12.50;;;;;;;-1.09;79.33;98562.96;109141;1277;23473;-66
2022/01/17 04:00:58;;;;;;;27.90;12.40;;;;;;;-1.07;79.23;98560.58;109050;1276;137851;-66
2022/01/17 04:03:26;;;;;;;24.30;11.90;;;;;;;-1.05;79.06;98560.14;109209;1276;22443;-66
2022/01/17 04:05:54;;;;;;;25.30;12.20;;;;;;;-1.02;78.89;98554.05;109102;1277;137472;-66
2022/01/17 04:08:22;;;;;;;38.10;13.80;;;;;;;-1.00;78.48;98551.70;109225;1277;22422;-66
2022/01/17 04:10:50;;;;;;;22.70;12.00;;;;;;;-0.98;78.31;98550.90;109051;1276;138060;-65
2022/01/17 04:13:18;;;;;;;26.90;12.10;;;;;;;-0.97;78.24;98545.80;109169;1276;22526;-65
2022/01/17 04:15:47;;;;;;;25.50;11.20;;;;;;;-0.94;77.95;98543.17;109187;1277;22451;-66
2022/01/17 04:18:15;;;;;;;21.40;10.60;;;;;;;-0.93;77.69;98538.77;109099;1277;140377;-66
2022/01/17 04:20:44;;;;;;;23.60;11.30;;;;;;;-0.90;77.45;98533.52;107690;1276;23121;-65
2022/01/17 04:23:12;;;;;;;21.50;10.60;;;;;;;-0.87;77.18;98525.55;104933;1277;138394;-65
2022/01/17 04:25:41;;;;;;;19.40;10.20;;;;;;;-0.84;77.27;98520.73;105001;1277;25555;-65
2022/01/17 04:28:10;;;;;;;21.80;10.50;;;;;;;-0.82;76.81;98517.55;104922;1278;22570;-65
2022/01/17 04:30:38;;;;;;;19.90;10.50;;;;;;;-0.79;76.52;98512.78;104722;1278;138871;-66
2022/01/17 04:33:07;;;;;;;23.60;9.50;;;;;;;-0.77;76.25;98514.76;104885;1277;25400;-65
2022/01/17 04:35:35;;;;;;;20.60;10.70;;;;;;;-0.75;76.03;98522.33;104744;1277;138238;-65
2022/01/17 04:38:13;;;;;;;21.00;10.50;;;;;;;-0.74;75.98;98521.63;104886;1278;24419;-65
2022/01/17 04:40:46;;;;;;;19.60;10.20;;;;;;;-0.73;76.04;98525.32;109130;1277;138255;-65
2022/01/17 04:46:21;;;;;;;24.80;9.80;;;;;;;-0.73;76.73;98528.35;108490;1282;22443;-66
2022/01/17 04:48:49;;;;;;;18.80;9.70;;;;;;;-0.73;77.03;98518.98;108404;1282;139218;-66
2022/01/17 04:51:17;;;;;;;22.90;11.00;;;;;;;-0.73;77.46;98519.73;108574;1282;22290;-66
2022/01/17 04:53:59;;;;;;;23.20;10.30;;;;;;;-0.74;77.84;98505.91;108456;1282;139091;-66
2022/01/17 04:56:26;;;;;;;20.10;10.60;;;;;;;-0.75;78.43;98494.52;108570;1283;23590;-66
2022/01/17 04:58:54;;;;;;;26.70;10.70;;;;;;;-0.75;78.89;98485.42;108470;1281;138842;-66
2022/01/17 05:01:22;;;;;;;24.30;9.90;;;;;;;-0.74;79.11;98479.20;104872;1282;22599;-66
2022/01/17 05:03:50;;;;;;;21.40;9.80;;;;;;;-0.76;79.50;98469.25;104214;1283;23072;-64
2022/01/17 05:06:18;;;;;;;18.70;9.70;;;;;;;-0.77;79.92;98460.16;108366;1282;139431;-65
2022/01/17 05:08:46;;;;;;;21.70;10.40;;;;;;;-0.77;80.12;98449.13;108487;1283;22498;-65
2022/01/17 05:11:18;;;;;;;19.70;9.70;;;;;;;-0.77;80.32;98442.39;108486;1282;139954;-66
2022/01/17 05:13:49;;;;;;;18.70;9.90;;;;;;;-0.77;80.62;98438.52;108405;1284;22452;-66
2022/01/17 05:16:20;;;;;;;23.70;10.70;;;;;;;-0.76;81.02;98439.27;108556;1283;23397;-65
2022/01/17 05:21:15;;;;;;;25.00;10.30;;;;;;;-0.75;81.20;98422.47;109195;1276;22465;-66
2022/01/17 05:23:43;;;;;;;21.60;9.90;;;;;;;-0.74;81.35;98421.48;109163;1276;138513;-66
2022/01/17 05:26:11;;;;;;;23.30;10.00;;;;;;;-0.74;81.53;98418.20;109234;1277;22567;-66
2022/01/17 05:28:40;;;;;;;17.20;10.30;;;;;;;-0.73;81.81;98418.48;109236;1276;22437;-65
2022/01/17 05:31:08;;;;;;;22.60;10.20;;;;;;;-0.71;81.76;98422.02;109082;1276;138259;-65
2022/01/17 05:33:36;;;;;;;20.80;10.30;;;;;;;-0.69;81.93;98422.95;105888;1276;25291;-64
2022/01/17 05:36:04;;;;;;;22.80;11.70;;;;;;;-0.69;82.07;98422.71;104770;1277;137558;-64
2022/01/17 05:38:32;;;;;;;22.90;12.30;;;;;;;-0.70;82.32;98416.37;109131;1276;22560;-65
2022/01/17 05:41:00;;;;;;;18.70;11.30;;;;;;;-0.69;82.50;98414.77;109123;1276;139314;-65
2022/01/17 05:43:28;;;;;;;20.20;11.40;;;;;;;-0.69;82.57;98413.45;109207;1277;22436;-65
2022/01/17 05:45:56;;;;;;;22.10;10.60;;;;;;;-0.68;82.52;98407.81;109159;1276;22804;-65
2022/01/17 05:48:24;;;;;;;19.90;9.70;;;;;;;-0.67;82.76;98405.59;109073;1277;138230;-66
2022/01/17 05:50:52;;;;;;;23.70;11.20;;;;;;;-0.66;82.70;98402.91;109212;1276;22505;-65
2022/01/17 05:53:20;;;;;;;18.20;10.50;;;;;;;-0.65;82.69;98399.52;109084;1276;138692;-66
2022/01/17 05:55:48;;;;;;;22.90;11.10;;;;;;;-0.63;82.84;98389.65;108063;1276;24440;-65
2022/01/17 05:58:16;;;;;;;19.60;10.90;;;;;;;-0.61;83.13;98385.29;104906;1277;22568;-65
2022/01/17 06:00:44;;;;;;;20.90;10.40;;;;;;;-0.61;83.07;98386.97;104654;1277;138239;-65
2022/01/17 06:03:12;;;;;;;20.70;10.90;;;;;;;-0.59;82.85;98381.58;104678;1278;25444;-65
2022/01/17 06:05:40;;;;;;;20.40;9.90;;;;;;;-0.57;83.05;98376.39;104672;1277;139835;-65
2022/01/17 06:08:08;;;;;;;23.60;10.90;;;;;;;-0.55;83.21;98369.71;104919;1277;22889;-65
2022/01/17 06:10:38;;;;;;;22.30;10.30;;;;;;;-0.53;83.27;98368.34;104618;1278;24325;-65
2022/01/17 06:13:06;;;;;;;17.30;10.20;;;;;;;-0.52;83.15;98367.86;104662;1278;138928;-65
2022/01/17 06:15:53;;;;;;;19.20;10.90;;;;;;;-0.51;83.24;98363.45;104985;1277;25460;-65
2022/01/17 06:18:22;;;;;;;20.40;10.30;;;;;;;-0.50;83.26;98359.20;104753;1278;138349;-65
2022/01/17 06:20:50;;;;;;;21.60;11.30;;;;;;;-0.49;83.20;98356.40;104919;1278;24248;-65
2022/01/17 06:23:18;;;;;;;23.30;11.00;;;;;;;-0.47;83.28;98357.95;108918;1277;138888;-66
2022/01/17 06:25:46;;;;;;;23.80;11.00;;;;;;;-0.47;83.08;98350.87;109245;1276;22557;-66
2022/01/17 06:28:13;;;;;;;18.20;11.00;;;;;;;-0.45;83.20;98347.40;109185;1276;22511;-66
2022/01/17 06:30:41;;;;;;;19.40;10.50;;;;;;;-0.43;83.16;98341.81;109092;1276;139259;-66
2022/01/17 06:33:09;;;;;;;20.90;10.20;;;;;;;-0.41;83.14;98335.05;109062;1277;23374;-66
2022/01/17 06:35:37;;;;;;;19.40;10.20;;;;;;;-0.39;82.95;98326.11;109064;1276;139803;-66
2022/01/17 06:38:05;;;;;;;23.10;10.70;;;;;;;-0.37;83.09;98322.89;109042;1277;22568;-66
2022/01/17 06:40:33;;;;;;;24.40;10.70;;;;;;;-0.33;83.01;98313.60;109210;1276;22432;-66
2022/01/17 06:43:08;;;;;;;22.10;11.90;;;;;;;-0.32;83.05;98288.73;109040;1276;139772;-66
2022/01/17 06:45:36;;;;;;;25.40;11.40;;;;;;;-0.29;82.82;98281.39;109170;1276;22649;-66
2022/01/17 06:48:06;;;;;;;20.50;11.80;;;;;;;-0.27;82.92;98275.70;109069;1276;138893;-66
2022/01/17 06:50:34;;;;;;;25.70;11.80;;;;;;;-0.25;82.76;98268.31;109042;1277;23185;-66
2022/01/17 06:53:02;;;;;;;21.70;12.40;;;;;;;-0.23;82.67;98256.62;109114;1276;138773;-66
2022/01/17 06:55:30;;;;;;;19.90;11.10;;;;;;;-0.22;82.76;98239.27;109179;1276;23326;-66
2022/01/17 06:57:58;;;;;;;26.50;12.60;;;;;;;-0.20;82.33;98227.48;109138;1276;23338;-66
2022/01/17 07:00:26;;;;;;;28.40;13.50;;;;;;;-0.19;82.58;98223.39;109079;1276;138263;-66
2022/01/17 07:02:54;;;;;;;27.60;14.20;;;;;;;-0.18;82.31;98241.87;109046;1277;22514;-66
2022/01/17 07:05:22;;;;;;;25.30;12.30;;;;;;;-0.16;82.26;98280.48;109069;1276;138999;-66
2022/01/17 07:07:50;;;;;;;22.10;11.60;;;;;;;-0.13;82.26;98311.06;109200;1276;22483;-66
2022/01/17 07:10:19;;;;;;;21.20;10.90;;;;;;;-0.09;81.96;98313.18;109251;1276;22487;-66
2022/01/17 07:12:51;;;;;;;26.60;12.90;;;;;;;-0.06;82.06;98327.09;109538;1276;137106;-65
2022/01/17 07:17:22;;;;;;;26.10;12.40;;;;;;;0.04;82.21;98320.98;102881;1306;545163;-64
2022/01/17 07:19:51;;;;;;;24.40;11.90;;;;;;;0.06;81.73;98299.02;104487;1287;25141;-64
2022/01/17 07:22:19;;;;;;;27.60;12.80;;;;;;;0.09;81.89;98275.87;104510;1287;22732;-64
2022/01/17 07:24:47;;;;;;;27.30;13.80;;;;;;;0.11;81.76;98254.93;108119;1287;136763;-65
2022/01/17 07:27:15;;;;;;;23.00;12.80;;;;;;;0.12;81.75;98219.48;108226;1287;22653;-65
2022/01/17 07:29:44;;;;;;;25.70;13.30;;;;;;;0.14;81.46;98194.95;108165;1286;137890;-65
2022/01/17 07:32:12;;;;;;;22.50;12.60;;;;;;;0.15;81.37;98166.70;108444;1283;143272;-65
2022/01/17 07:34:41;;;;;;;23.20;12.20;;;;;;;0.18;81.59;98164.20;108560;1284;22447;-65
2022/01/17 07:37:09;;;;;;;27.00;15.40;;;;;;;0.20;81.18;98173.15;108509;1284;137523;-65
2022/01/17 07:39:37;;;;;;;28.00;15.10;;;;;;;0.22;81.35;98176.95;108521;1284;22583;-65
2022/01/17 07:42:05;;;;;;;26.80;15.20;;;;;;;0.25;81.41;98171.58;108450;1284;138531;-65
2022/01/17 07:44:34;;;;;;;25.10;13.30;;;;;;;0.29;81.39;98180.25;108588;1284;22476;-65
2022/01/17 07:47:04;;;;;;;26.30;13.50;;;;;;;0.32;81.26;98189.03;108444;1283;139937;-65
2022/01/17 07:49:32;;;;;;;23.50;13.50;;;;;;;0.37;81.41;98192.81;108598;1283;22426;-65
2022/01/17 07:52:05;;;;;;;24.00;13.30;;;;;;;0.40;81.36;98217.02;106755;1284;24126;-66
2022/01/17 07:54:37;;;;;;;25.30;13.20;;;;;;;0.44;81.46;98232.53;103933;1287;138920;-66
2022/01/17 07:57:05;;;;;;;28.00;13.40;;;;;;;0.48;81.07;98219.79;104214;1284;22589;-66
2022/01/17 07:59:33;;;;;;;25.60;13.80;;;;;;;0.50;81.15;98204.23;108344;1284;137483;-67
2022/01/17 08:02:02;;;;;;;28.20;13.80;;;;;;;0.53;81.26;98191.54;108561;1284;22563;-67
2022/01/17 08:04:30;;;;;;;28.70;16.60;;;;;;;0.56;81.21;98168.17;108535;1284;22476;-67
2022/01/17 08:06:58;;;;;;;28.10;14.70;;;;;;;0.57;81.17;98166.79;108474;1284;137035;-60
2022/01/17 08:09:30;;;;;;;23.10;14.50;;;;;;;0.59;81.18;98162.91;108576;1283;22605;-61
2022/01/17 08:12:05;;;;;;;29.50;16.10;;;;;;;0.59;81.25;98136.81;108480;1284;137249;-60
2022/01/17 08:14:36;;;;;;;29.10;15.60;;;;;;;0.60;81.09;98136.42;108616;1284;24603;-61
2022/01/17 08:17:05;;;;;;;28.00;15.50;;;;;;;0.61;81.36;98141.41;108511;1284;138709;-61
2022/01/17 08:19:33;;;;;;;26.70;15.70;;;;;;;0.62;81.13;98127.88;108602;1283;22558;-60
2022/01/17 08:22:02;;;;;;;26.10;14.90;;;;;;;0.64;81.05;98093.09;108548;1283;22543;-59
2022/01/17 08:24:31;;;;;;;30.90;14.00;;;;;;;0.65;81.39;98097.27;108499;1283;137833;-59
2022/01/17 08:26:59;;;;;;;31.00;15.60;;;;;;;0.65;81.21;98097.31;108620;1283;22551;-65
2022/01/17 08:29:28;;;;;;;33.50;16.60;;;;;;;0.67;81.19;98083.23;108502;1284;138989;-65
2022/01/17 08:31:56;;;;;;;35.30;16.80;;;;;;;0.69;81.26;98091.12;108984;1280;22408;-65
2022/01/17 08:34:24;;;;;;;26.90;15.90;;;;;;;0.73;81.60;98083.84;108989;1279;22486;-65
2022/01/17 08:36:53;;;;;;;27.20;16.00;;;;;;;0.74;81.43;98078.41;108859;1280;136942;-65
2022/01/17 08:39:21;;;;;;;34.00;18.50;;;;;;;0.76;81.64;98061.77;108531;1280;22659;-65
2022/01/17 08:41:49;;;;;;;29.00;16.00;;;;;;;0.77;81.58;98067.77;104660;1279;137017;-64
2022/01/17 08:44:19;;;;;;;28.60;16.90;;;;;;;0.78;81.65;98062.64;104416;1281;23057;-64
2022/01/17 08:46:47;;;;;;;29.90;17.30;;;;;;;0.78;81.36;98057.48;108789;1280;137598;-62
2022/01/17 08:49:16;;;;;;;30.40;16.20;;;;;;;0.78;81.45;98070.84;108974;1279;22811;-61
2022/01/17 08:51:46;;;;;;;28.20;15.40;;;;;;;0.79;81.22;98061.47;109293;1277;22433;-60
2022/01/17 08:54:14;;;;;;;28.20;16.00;;;;;;;0.79;81.41;98061.21;109151;1276;138241;-60
2022/01/17 08:56:42;;;;;;;27.50;16.00;;;;;;;0.80;81.47;98056.95;109306;1277;22999;-60
2022/01/17 08:59:10;;;;;;;30.30;16.10;;;;;;;0.83;81.34;98063.19;109135;1277;138278;-61
2022/01/17 09:01:38;;;;;;;28.10;16.80;;;;;;;0.85;81.53;98052.15;109248;1277;23692;-60
2022/01/17 09:04:06;;;;;;;30.30;16.30;;;;;;;0.87;81.74;98055.02;109288;1276;22438;-60
2022/01/17 09:06:34;;;;;;;26.50;14.30;;;;;;;0.88;81.57;98061.42;109001;1276;139615;-61
2022/01/17 09:09:02;;;;;;;25.10;15.00;;;;;;;0.90;81.32;98048.54;109218;1276;22510;-60
2022/01/17 09:11:30;;;;;;;25.60;15.40;;;;;;;0.91;81.38;98047.61;109089;1277;137366;-60
2022/01/17 09:13:58;;;;;;;27.10;14.60;;;;;;;0.92;81.25;98026.84;109256;1277;22860;-60
2022/01/17 09:16:26;;;;;;;29.60;17.00;;;;;;;0.93;81.48;98022.09;109244;1276;23367;-60
2022/01/17 09:18:54;;;;;;;30.70;16.90;;;;;;;0.94;81.06;98020.77;109155;1277;139170;-60
2022/01/17 09:21:22;;;;;;;27.00;14.50;;;;;;;0.94;81.17;98002.48;109263;1277;22589;-60
2022/01/17 09:23:50;;;;;;;28.90;16.20;;;;;;;0.96;81.17;98004.39;109169;1276;137705;-60
2022/01/17 09:26:21;;;;;;;25.40;14.40;;;;;;;0.97;80.98;97998.69;109242;1276;23103;-61
2022/01/17 09:28:49;;;;;;;26.20;14.10;;;;;;;0.98;80.97;97986.45;109103;1276;137991;-61
2022/01/17 09:31:17;;;;;;;27.40;15.40;;;;;;;1.00;80.89;97976.52;109243;1277;23286;-61
2022/01/17 09:33:45;;;;;;;26.80;13.90;;;;;;;1.02;80.86;97969.57;109261;1277;22279;-61
2022/01/17 09:36:13;;;;;;;25.40;15.00;;;;;;;1.04;80.92;97962.68;109156;1277;137454;-61
2022/01/17 09:38:42;;;;;;;26.50;15.10;;;;;;;1.05;80.94;97958.91;109218;1276;22456;-62
2022/01/17 09:41:10;;;;;;;29.00;15.90;;;;;;;1.08;80.77;97951.29;109138;1276;140105;-61
2022/01/17 09:43:46;;;;;;;22.40;14.20;;;;;;;1.07;80.72;97946.71;109255;1277;22510;-61
2022/01/17 09:46:15;;;;;;;25.80;15.40;;;;;;;1.07;80.67;97940.97;107349;1276;22560;-61
2022/01/17 09:48:48;;;;;;;23.80;14.00;;;;;;;1.05;80.50;97932.25;104865;1277;137061;-60
2022/01/17 09:51:41;;;;;;;24.10;14.00;;;;;;;1.05;80.40;97918.02;104719;1278;24326;-61
2022/01/17 09:54:09;;;;;;;22.60;13.70;;;;;;;1.03;80.53;97921.85;109221;1275;139555;-61
2022/01/17 09:56:38;;;;;;;19.90;12.80;;;;;;;1.03;80.42;97922.27;109339;1275;23500;-61
2022/01/17 09:59:06;;;;;;;24.80;15.60;;;;;;;1.03;80.50;97922.81;109231;1275;138509;-61
2022/01/17 10:01:37;;;;;;;25.30;14.70;;;;;;;1.02;80.50;97912.17;109285;1274;22468;-61
2022/01/17 10:04:07;;;;;;;22.00;12.50;;;;;;;1.01;80.59;97901.42;109189;1274;23660;-62
2022/01/17 10:06:39;;;;;;;26.30;13.40;;;;;;;1.03;80.60;97904.69;109219;1274;138913;-61
2022/01/17 10:09:09;;;;;;;24.90;14.60;;;;;;;1.04;80.75;97901.05;109232;1275;22404;-61
2022/01/17 10:12:01;;;;;;;23.30;13.60;;;;;;;1.04;80.79;97903.59;109218;1275;137236;-62
2022/01/17 10:14:35;;;;;;;24.60;14.80;;;;;;;1.04;80.61;97904.17;109289;1276;22466;-61
2022/01/17 10:17:11;;;;;;;25.10;14.90;;;;;;;1.06;80.60;97891.98;109153;1275;139054;-62
2022/01/17 10:19:40;;;;;;;20.50;13.30;;;;;;;1.06;80.74;97891.44;109278;1276;22470;-61
2022/01/17 10:22:15;;;;;;;24.90;14.60;;;;;;;1.07;80.79;97891.09;109288;1276;22456;-61
2022/01/17 10:24:55;;;;;;;20.00;12.60;;;;;;;1.08;80.70;97885.21;109215;1274;137957;-60
2022/01/17 10:27:46;;;;;;;25.60;13.90;;;;;;;1.09;80.80;97876.86;109304;1274;22490;-60
2022/01/17 10:30:31;;;;;;;23.30;13.30;;;;;;;1.10;80.69;97874.95;109255;1274;138936;-61
2022/01/17 10:35:53;;;;;;;23.70;12.90;;;;;;;1.15;80.81;97859.65;109259;1274;139300;-60
2022/01/17 10:38:22;;;;;;;24.00;14.30;;;;;;;1.17;80.57;97843.97;109215;1274;23310;-60
2022/01/17 10:40:53;;;;;;;21.50;13.40;;;;;;;1.19;80.39;97832.90;109224;1274;138719;-59
2022/01/17 10:43:26;;;;;;;23.60;12.50;;;;;;;1.21;80.50;97814.02;109297;1274;22468;-60
2022/01/17 10:45:55;;;;;;;18.40;12.30;;;;;;;1.22;80.36;97802.55;109346;1274;22617;-56
2022/01/17 10:48:31;;;;;;;22.40;13.10;;;;;;;1.22;80.45;97791.57;109219;1274;138366;-56
2022/01/17 10:50:58;;;;;;;22.20;12.90;;;;;;;1.24;80.51;97773.67;109310;1274;22532;-56
2022/01/17 10:53:26;;;;;;;21.40;12.20;;;;;;;1.25;80.12;97777.04;109250;1274;140604;-56
2022/01/17 10:55:56;;;;;;;21.70;13.00;;;;;;;1.27;80.15;97771.75;109311;1275;23391;-56
2022/01/17 10:58:26;;;;;;;18.90;12.40;;;;;;;1.29;80.13;97764.81;109171;1274;22546;-56
2022/01/17 11:01:02;;;;;;;21.00;12.60;;;;;;;1.31;80.29;97752.33;109242;1275;137913;-56
2022/01/17 11:03:33;;;;;;;25.50;13.40;;;;;;;1.34;80.18;97750.98;109355;1274;22460;-56
2022/01/17 11:06:09;;;;;;;21.90;13.30;;;;;;;1.35;79.87;97745.88;109265;1275;139731;-56
2022/01/17 11:08:39;;;;;;;22.40;13.50;;;;;;;1.37;79.87;97745.84;109381;1276;23620;-56
2022/01/17 11:11:08;;;;;;;19.10;12.60;;;;;;;1.38;79.69;97742.59;109231;1274;137404;-56
2022/01/17 11:13:43;;;;;;;18.30;12.70;;;;;;;1.37;79.73;97740.05;109320;1276;23362;-56
2022/01/17 11:16:12;;;;;;;23.80;14.10;;;;;;;1.38;79.72;97740.07;109303;1276;25056;-56
2022/01/17 11:18:43;;;;;;;20.50;12.90;;;;;;;1.38;79.53;97736.69;109204;1275;137131;-56
2022/01/17 11:21:14;;;;;;;19.10;12.40;;;;;;;1.37;79.33;97724.61;109280;1276;23014;-57
2022/01/17 11:23:47;;;;;;;19.50;12.60;;;;;;;1.37;79.29;97722.56;109228;1275;139362;-57
2022/01/17 11:26:16;;;;;;;17.40;11.50;;;;;;;1.36;79.41;97720.23;109263;1275;22685;-60
2022/01/17 11:28:47;;;;;;;23.10;12.20;;;;;;;1.36;79.37;97719.43;109341;1275;22630;-60
2022/01/17 11:31:16;;;;;;;18.80;11.70;;;;;;;1.37;79.29;97705.66;109238;1274;137813;-60
2022/01/17 11:33:47;;;;;;;19.30;12.30;;;;;;;1.39;79.33;97702.73;109370;1276;23443;-60
2022/01/17 11:36:16;;;;;;;18.20;11.80;;;;;;;1.41;79.23;97698.33;109215;1276;138660;-60
2022/01/17 11:38:48;;;;;;;18.10;11.30;;;;;;;1.42;79.09;97689.22;109366;1274;22417;-61
2022/01/17 11:41:21;;;;;;;18.60;11.10;;;;;;;1.45;79.16;97686.73;109171;1277;137773;-60
2022/01/17 11:43:59;;;;;;;18.00;11.30;;;;;;;1.47;79.15;97670.28;109324;1275;22417;-60
2022/01/17 11:46:29;;;;;;;20.00;11.20;;;;;;;1.49;79.02;97661.08;109317;1274;22472;-60